This is the latest recevied weather packets stored in our database for station/object OK2BOZ-1. If no packets are shown the sender has not sent any weather packets the latest 10 day(s).
| Time | Temp. | Humidity | Pressure | Rain* | Wind** | Luminosity | Snow |
|---|---|---|---|---|---|---|---|
| 1777791014 | 21.67° C | 43% | 1019.2 hPa | - | - | - | - |
| 1777790384 | 20.56° C | 45% | 1019.1 hPa | - | - | - | - |
| 1777790069 | 20° C | 46% | 1019.1 hPa | - | - | - | - |
| 1777789754 | 18.33° C | 48% | 1019.2 hPa | - | - | - | - |
| 1777789439 | 18.33° C | 48% | 1019.1 hPa | - | - | - | - |
| 1777788809 | 19.44° C | 45% | 1019 hPa | - | - | - | - |
| 1777788495 | 18.89° C | 46% | 1018.9 hPa | - | - | - | - |
| 1777788180 | 18.89° C | 46% | 1018.9 hPa | - | - | - | - |
| 1777787864 | 18.89° C | 46% | 1018.9 hPa | - | - | - | - |
| 1777787549 | 19.44° C | 46% | 1018.9 hPa | - | - | - | - |
| 1777787234 | 18.89° C | 46% | 1018.9 hPa | - | - | - | - |
| 1777786920 | 18.89° C | 47% | 1018.9 hPa | - | - | - | - |
| 1777786606 | 18.33° C | 47% | 1018.9 hPa | - | - | - | - |
| 1777786290 | 18.33° C | 47% | 1018.8 hPa | - | - | - | - |
| 1777785976 | 17.22° C | 48% | 1018.9 hPa | - | - | - | - |
| 1777785661 | 17.22° C | 48% | 1018.9 hPa | - | - | - | - |
| 1777785347 | 17.22° C | 47% | 1018.9 hPa | - | - | - | - |
| 1777785031 | 16.67° C | 50% | 1018.9 hPa | - | - | - | - |
| 1777784716 | 15° C | 53% | 1018.9 hPa | - | - | - | - |
| 1777784402 | 14.44° C | 53% | 1018.9 hPa | - | - | - | - |
| 1777784088 | 15° C | 52% | 1018.9 hPa | - | - | - | - |
| 1777783773 | 15° C | 54% | 1018.9 hPa | - | - | - | - |
| 1777783459 | 14.44° C | 57% | 1018.9 hPa | - | - | - | - |
| 1777783146 | 12.78° C | 61% | 1018.9 hPa | - | - | - | - |
| 1777782831 | 12.22° C | 64% | 1018.9 hPa | - | - | - | - |
* Rain since midnight (hover to see other rain measurements)
** Current wind speed in m/s (hover to see current wind gust speed)